Time;durP1;ratioP1;P1;durP2;ratioP2;P2;SDS_P1;SDS_P2;PMS_P1;PMS_P2;Temp;Humidity;BMP_temperature;BMP_pressure;BME280_temperature;BME280_humidity;BME280_pressure;Samples;Min_cycle;Max_cycle;Signal;HPM_P1;HPM_P2
2022/01/11 00:01:41;;;;;;;12.63;6.22;;;;;;;;;;5093500;28;20016;-83
2022/01/11 00:04:07;;;;;;;10.70;6.20;;;;;;;;;;5094461;28;20016;-80
2022/01/11 00:06:40;;;;;;;12.88;5.93;;;;;;;;;;5099608;28;20024;-82
2022/01/11 00:09:20;;;;;;;10.23;5.20;;;;;;;;;;5093184;28;20128;-80
2022/01/11 00:11:46;;;;;;;11.50;5.93;;;;;;;;;;5093366;28;20107;-82
2022/01/11 00:14:13;;;;;;;11.18;5.88;;;;;;;;;;5093186;28;20016;-81
2022/01/11 00:16:39;;;;;;;12.25;6.07;;;;;;;;;;5093190;28;20024;-82
2022/01/11 00:19:06;;;;;;;10.68;6.30;;;;;;;;;;5093126;28;20029;-81
2022/01/11 00:21:33;;;;;;;11.85;6.30;;;;;;;;;;5092769;28;20114;-82
2022/01/11 00:26:44;;;;;;;10.70;5.72;;;;;;;;;;5093197;28;20119;-82
2022/01/11 00:29:10;;;;;;;11.23;5.78;;;;;;;;;;5093587;28;20032;-82
2022/01/11 00:31:37;;;;;;;12.07;6.70;;;;;;;;;;5093051;28;20495;-83
2022/01/11 00:34:06;;;;;;;12.65;6.32;;;;;;;;;;5095301;28;20020;-83
2022/01/11 00:36:41;;;;;;;12.07;6.72;;;;;;;;;;5097337;28;20045;-83
2022/01/11 00:39:08;;;;;;;11.90;6.57;;;;;;;;;;5096810;28;20024;-83
2022/01/11 00:41:34;;;;;;;12.20;6.90;;;;;;;;;;5096435;28;20054;-83
2022/01/11 00:44:01;;;;;;;12.73;5.95;;;;;;;;;;5096777;28;20028;-83
2022/01/11 00:46:27;;;;;;;14.52;7.55;;;;;;;;;;5096617;28;20032;-82
2022/01/11 00:48:53;;;;;;;10.85;5.80;;;;;;;;;;5096102;28;20027;-83
2022/01/11 00:51:19;;;;;;;11.95;6.60;;;;;;;;;;5096407;28;20031;-83
2022/01/11 00:53:45;;;;;;;10.45;6.07;;;;;;;;;;5096494;28;20020;-84
2022/01/11 00:56:11;;;;;;;12.10;7.50;;;;;;;;;;5095983;28;20024;-83
2022/01/11 00:58:38;;;;;;;12.73;6.25;;;;;;;;;;5096213;28;20024;-82
2022/01/11 01:01:04;;;;;;;13.55;6.82;;;;;;;;;;5096162;28;20031;-82
2022/01/11 01:03:30;;;;;;;14.75;8.35;;;;;;;;;;5095864;28;20020;-82
2022/01/11 01:05:57;;;;;;;13.00;6.97;;;;;;;;;;5096184;28;20016;-83
2022/01/11 01:08:23;;;;;;;13.10;6.28;;;;;;;;;;5096007;28;20048;-82
2022/01/11 01:10:50;;;;;;;15.18;7.35;;;;;;;;;;5094373;28;20506;-84
2022/01/11 01:13:23;;;;;;;14.82;7.10;;;;;;;;;;5096287;28;20467;-82
2022/01/11 01:15:51;;;;;;;15.98;7.10;;;;;;;;;;5094724;28;20032;-83
2022/01/11 01:18:20;;;;;;;11.93;6.47;;;;;;;;;;5095636;28;20024;-82
2022/01/11 01:20:47;;;;;;;11.95;5.88;;;;;;;;;;5095759;28;20020;-83
2022/01/11 01:23:13;;;;;;;11.82;7.82;;;;;;;;;;5094123;28;20031;-82
2022/01/11 01:25:40;;;;;;;12.50;7.05;;;;;;;;;;5095644;28;20020;-83
2022/01/11 01:28:07;;;;;;;11.63;6.25;;;;;;;;;;5095729;28;20030;-83
2022/01/11 01:30:34;;;;;;;15.68;8.18;;;;;;;;;;5095582;28;20539;-83
2022/01/11 01:33:00;;;;;;;15.40;8.52;;;;;;;;;;5095661;28;20523;-82
2022/01/11 01:35:32;;;;;;;17.83;9.25;;;;;;;;;;5095706;28;20032;-83
2022/01/11 01:37:58;;;;;;;16.27;8.65;;;;;;;;;;5095391;28;20023;-83
2022/01/11 01:40:24;;;;;;;13.65;7.65;;;;;;;;;;5095706;28;20036;-83
2022/01/11 01:42:51;;;;;;;14.00;7.10;;;;;;;;;;5095800;28;20522;-83
2022/01/11 01:45:23;;;;;;;12.98;7.32;;;;;;;;;;5094847;28;20027;-82
2022/01/11 01:47:56;;;;;;;16.23;8.05;;;;;;;;;;5094140;28;20020;-83
2022/01/11 01:50:22;;;;;;;13.77;8.02;;;;;;;;;;5095531;28;20070;-82
2022/01/11 01:52:49;;;;;;;14.13;7.63;;;;;;;;;;5094867;28;20052;-84
2022/01/11 01:55:15;;;;;;;14.80;7.47;;;;;;;;;;5095488;28;20024;-83
2022/01/11 01:57:41;;;;;;;12.73;7.63;;;;;;;;;;5095854;28;20047;-83
2022/01/11 02:00:11;;;;;;;13.65;7.95;;;;;;;;;;5096735;28;20020;-82
2022/01/11 02:02:39;;;;;;;12.63;7.20;;;;;;;;;;5095616;28;20028;-82
2022/01/11 02:05:06;;;;;;;14.60;8.93;;;;;;;;;;5095150;28;20434;-81
2022/01/11 02:07:33;;;;;;;14.50;8.05;;;;;;;;;;5094519;28;20404;-83
2022/01/11 02:10:01;;;;;;;11.60;6.47;;;;;;;;;;5095285;28;20484;-83
2022/01/11 02:12:30;;;;;;;14.32;8.15;;;;;;;;;;5094810;28;20024;-82
2022/01/11 02:14:56;;;;;;;13.57;7.53;;;;;;;;;;5095087;28;20024;-83
2022/01/11 02:17:22;;;;;;;13.73;7.40;;;;;;;;;;5094972;28;20016;-82
2022/01/11 02:19:49;;;;;;;13.35;7.03;;;;;;;;;;5094581;28;20016;-83
2022/01/11 02:22:15;;;;;;;12.55;7.63;;;;;;;;;;5094835;28;20024;-82
2022/01/11 02:24:41;;;;;;;15.35;8.27;;;;;;;;;;5094726;28;20070;-83
2022/01/11 02:27:07;;;;;;;17.50;8.38;;;;;;;;;;5094253;28;20024;-82
2022/01/11 02:29:34;;;;;;;16.73;8.35;;;;;;;;;;5094561;28;20031;-82
2022/01/11 02:32:00;;;;;;;14.25;8.23;;;;;;;;;;5094407;28;20020;-83
2022/01/11 02:34:26;;;;;;;15.68;8.00;;;;;;;;;;5094045;28;20507;-82
2022/01/11 02:36:52;;;;;;;15.15;8.38;;;;;;;;;;5094798;28;20024;-84
2022/01/11 02:39:18;;;;;;;15.45;8.68;;;;;;;;;;5094539;28;20024;-83
2022/01/11 02:41:55;;;;;;;15.98;8.18;;;;;;;;;;5093892;28;20423;-83
2022/01/11 02:44:21;;;;;;;11.98;7.05;;;;;;;;;;5094531;28;20024;-82
2022/01/11 02:46:47;;;;;;;12.77;7.53;;;;;;;;;;5094219;28;20031;-83
2022/01/11 02:49:13;;;;;;;15.20;8.23;;;;;;;;;;5093828;28;20020;-83
2022/01/11 02:51:40;;;;;;;16.48;8.27;;;;;;;;;;5094280;28;20043;-83
2022/01/11 02:54:06;;;;;;;13.70;7.65;;;;;;;;;;5094238;28;20099;-83
2022/01/11 02:56:33;;;;;;;11.70;6.50;;;;;;;;;;5093350;28;20111;-84
2022/01/11 02:58:59;;;;;;;16.67;8.10;;;;;;;;;;5094281;28;20031;-82
2022/01/11 03:01:26;;;;;;;16.23;7.95;;;;;;;;;;5094032;28;20043;-82
2022/01/11 03:03:52;;;;;;;14.20;7.78;;;;;;;;;;5092395;28;20384;-83
2022/01/11 03:06:18;;;;;;;15.25;8.55;;;;;;;;;;5093940;28;20020;-82
2022/01/11 03:08:46;;;;;;;16.20;8.63;;;;;;;;;;5093374;28;20044;-83
2022/01/11 03:11:14;;;;;;;15.32;8.85;;;;;;;;;;5092663;28;20110;-82
2022/01/11 03:13:41;;;;;;;15.00;7.80;;;;;;;;;;5094091;28;20491;-83
2022/01/11 03:16:08;;;;;;;13.95;8.02;;;;;;;;;;5093611;28;20044;-82
2022/01/11 03:18:35;;;;;;;16.40;8.27;;;;;;;;;;5093830;28;20473;-83
2022/01/11 03:21:01;;;;;;;14.07;7.70;;;;;;;;;;5093842;28;20023;-82
2022/01/11 03:23:28;;;;;;;13.93;7.63;;;;;;;;;;5093502;28;20062;-82
2022/01/11 03:25:54;;;;;;;18.50;9.32;;;;;;;;;;5093777;28;20024;-84
2022/01/11 03:28:21;;;;;;;13.55;7.50;;;;;;;;;;5093670;28;20410;-82
2022/01/11 03:30:48;;;;;;;15.30;7.78;;;;;;;;;;5092110;28;20089;-83
2022/01/11 03:33:14;;;;;;;16.67;9.32;;;;;;;;;;5093840;28;20028;-83
2022/01/11 03:35:41;;;;;;;14.18;8.13;;;;;;;;;;5094143;28;20419;-83
2022/01/11 03:38:09;;;;;;;14.82;8.43;;;;;;;;;;5093336;28;20020;-84
2022/01/11 03:40:35;;;;;;;15.18;8.77;;;;;;;;;;5093623;28;20520;-83
2022/01/11 03:43:01;;;;;;;15.80;9.13;;;;;;;;;;5093946;28;20380;-82
2022/01/11 03:45:27;;;;;;;15.85;7.70;;;;;;;;;;5093612;28;20025;-81
2022/01/11 03:47:55;;;;;;;13.48;7.35;;;;;;;;;;5093644;28;20069;-84
2022/01/11 03:50:22;;;;;;;16.17;9.88;;;;;;;;;;5093588;28;20086;-82
2022/01/11 03:52:57;;;;;;;16.17;7.82;;;;;;;;;;5093291;28;20017;-84
2022/01/11 03:55:33;;;;;;;14.30;8.23;;;;;;;;;;5094030;28;20055;-84
2022/01/11 03:57:59;;;;;;;15.85;8.10;;;;;;;;;;5093361;28;20027;-82
2022/01/11 04:00:25;;;;;;;15.57;8.30;;;;;;;;;;5093317;28;20032;-82
2022/01/11 04:02:51;;;;;;;14.68;8.27;;;;;;;;;;5093452;28;20464;-82
2022/01/11 04:05:18;;;;;;;13.88;7.93;;;;;;;;;;5093040;28;20054;-82
2022/01/11 04:07:44;;;;;;;15.57;8.23;;;;;;;;;;5093856;28;20381;-83
2022/01/11 04:10:10;;;;;;;16.60;8.75;;;;;;;;;;5096067;28;20040;-82
2022/01/11 04:12:37;;;;;;;14.18;8.30;;;;;;;;;;5096872;28;20020;-82
2022/01/11 04:15:03;;;;;;;16.52;9.10;;;;;;;;;;5097148;28;20070;-82
2022/01/11 04:17:29;;;;;;;16.23;8.18;;;;;;;;;;5097159;28;20027;-82
2022/01/11 04:19:55;;;;;;;16.40;8.73;;;;;;;;;;5096688;28;20070;-83
2022/01/11 04:22:22;;;;;;;14.70;8.90;;;;;;;;;;5096984;28;20043;-82
2022/01/11 04:24:48;;;;;;;17.30;9.13;;;;;;;;;;5096868;28;20059;-82
2022/01/11 04:27:14;;;;;;;19.25;9.38;;;;;;;;;;5096460;28;20480;-81
2022/01/11 04:29:40;;;;;;;17.65;8.48;;;;;;;;;;5096743;28;20570;-82
2022/01/11 04:32:07;;;;;;;17.25;9.15;;;;;;;;;;5096964;28;20027;-81
2022/01/11 04:34:33;;;;;;;15.43;8.23;;;;;;;;;;5096467;28;20137;-81
2022/01/11 04:36:59;;;;;;;18.38;8.52;;;;;;;;;;5097051;28;20035;-81
2022/01/11 04:39:25;;;;;;;16.80;9.63;;;;;;;;;;5096701;28;20028;-82
2022/01/11 04:41:52;;;;;;;16.25;8.57;;;;;;;;;;5096156;28;20024;-82
2022/01/11 04:44:18;;;;;;;17.30;9.07;;;;;;;;;;5096712;28;20031;-81
2022/01/11 04:46:44;;;;;;;19.00;9.85;;;;;;;;;;5096400;28;20024;-81
2022/01/11 04:49:10;;;;;;;14.80;8.52;;;;;;;;;;5095988;28;20360;-81
2022/01/11 04:51:36;;;;;;;17.33;8.52;;;;;;;;;;5096496;28;20024;-83
2022/01/11 04:54:03;;;;;;;18.85;10.57;;;;;;;;;;5096159;28;20441;-82
2022/01/11 04:56:29;;;;;;;17.63;10.82;;;;;;;;;;5096369;28;20156;-82
2022/01/11 04:58:57;;;;;;;18.67;8.65;;;;;;;;;;5096639;28;20027;-81
2022/01/11 05:01:23;;;;;;;18.83;9.93;;;;;;;;;;5095701;28;20024;-81
2022/01/11 05:03:50;;;;;;;18.48;10.35;;;;;;;;;;5096200;28;20110;-82
2022/01/11 05:06:16;;;;;;;18.45;10.95;;;;;;;;;;5096345;28;20460;-83
2022/01/11 05:08:44;;;;;;;19.05;9.63;;;;;;;;;;5095669;28;20055;-82
2022/01/11 05:11:10;;;;;;;20.75;10.85;;;;;;;;;;5096440;28;20077;-82
2022/01/11 05:13:36;;;;;;;17.52;9.82;;;;;;;;;;5095935;28;20028;-82
2022/01/11 05:16:03;;;;;;;12.95;7.75;;;;;;;;;;5095973;28;20031;-82
2022/01/11 05:18:30;;;;;;;17.30;7.95;;;;;;;;;;5095505;28;20138;-82
2022/01/11 05:20:56;;;;;;;17.60;9.55;;;;;;;;;;5095856;28;20032;-83
2022/01/11 05:23:22;;;;;;;19.25;10.38;;;;;;;;;;5095402;28;20070;-81
2022/01/11 05:25:48;;;;;;;21.08;11.20;;;;;;;;;;5098139;28;20028;-82
2022/01/11 05:28:14;;;;;;;14.77;9.18;;;;;;;;;;5099464;28;20376;-81
2022/01/11 05:30:41;;;;;;;16.55;9.23;;;;;;;;;;5096550;28;20396;-82
2022/01/11 05:33:07;;;;;;;15.73;8.60;;;;;;;;;;5096049;28;20016;-81
2022/01/11 05:35:33;;;;;;;16.92;9.98;;;;;;;;;;5095761;28;20101;-82
2022/01/11 05:37:59;;;;;;;18.52;10.23;;;;;;;;;;5095705;28;20016;-82
2022/01/11 05:40:26;;;;;;;14.45;8.98;;;;;;;;;;5096085;28;20028;-82
2022/01/11 05:42:52;;;;;;;15.90;8.85;;;;;;;;;;5095814;28;20461;-83
2022/01/11 05:45:18;;;;;;;17.92;9.50;;;;;;;;;;5095312;28;20020;-82
2022/01/11 05:47:45;;;;;;;16.33;9.40;;;;;;;;;;5095548;28;20032;-82
2022/01/11 05:50:12;;;;;;;18.65;9.07;;;;;;;;;;5095700;28;20032;-83
2022/01/11 05:52:39;;;;;;;16.85;9.05;;;;;;;;;;5095313;28;20030;-83
2022/01/11 05:55:06;;;;;;;16.85;9.32;;;;;;;;;;5095561;28;20024;-82
2022/01/11 05:57:32;;;;;;;17.08;8.57;;;;;;;;;;5094868;28;20035;-82
2022/01/11 05:59:59;;;;;;;16.35;8.65;;;;;;;;;;5095239;28;20142;-81
2022/01/11 06:02:25;;;;;;;15.43;7.88;;;;;;;;;;5095418;28;20016;-81
2022/01/11 06:04:51;;;;;;;18.80;9.93;;;;;;;;;;5095074;28;20021;-84
2022/01/11 06:07:17;;;;;;;19.13;10.60;;;;;;;;;;5095840;28;20492;-83
2022/01/11 06:09:44;;;;;;;16.73;9.05;;;;;;;;;;5094857;28;20133;-83
2022/01/11 06:12:10;;;;;;;17.55;9.05;;;;;;;;;;5094360;28;20024;-83
2022/01/11 06:14:36;;;;;;;19.00;10.02;;;;;;;;;;5095135;28;20070;-83
2022/01/11 06:17:02;;;;;;;19.80;10.13;;;;;;;;;;5094604;28;20032;-82
2022/01/11 06:19:31;;;;;;;16.13;9.18;;;;;;;;;;5093012;28;20437;-82
2022/01/11 06:21:57;;;;;;;14.60;8.48;;;;;;;;;;5094799;28;20020;-83
2022/01/11 06:24:23;;;;;;;17.40;8.82;;;;;;;;;;5094581;28;20020;-82
2022/01/11 06:26:49;;;;;;;15.85;8.25;;;;;;;;;;5094193;28;20091;-83
2022/01/11 06:29:16;;;;;;;20.33;9.23;;;;;;;;;;5094630;28;20380;-82
2022/01/11 06:31:42;;;;;;;17.42;8.95;;;;;;;;;;5093743;28;20088;-83
2022/01/11 06:34:10;;;;;;;21.48;10.73;;;;;;;;;;5094296;28;20463;-82
2022/01/11 06:36:36;;;;;;;18.92;10.60;;;;;;;;;;5094467;28;20028;-82
2022/01/11 06:39:03;;;;;;;16.63;9.02;;;;;;;;;;5094359;28;20040;-82
2022/01/11 06:41:29;;;;;;;17.85;9.70;;;;;;;;;;5094168;28;20024;-81
2022/01/11 06:43:56;;;;;;;18.67;9.73;;;;;;;;;;5093096;28;20040;-82
2022/01/11 06:46:24;;;;;;;17.20;10.15;;;;;;;;;;5094294;28;20039;-82
2022/01/11 06:48:51;;;;;;;18.10;9.63;;;;;;;;;;5093928;28;20464;-83
2022/01/11 06:51:18;;;;;;;20.30;11.48;;;;;;;;;;5094236;28;20044;-84
2022/01/11 06:53:44;;;;;;;18.00;11.10;;;;;;;;;;5094113;28;20028;-84
2022/01/11 06:56:10;;;;;;;21.77;12.57;;;;;;;;;;5094319;28;20475;-83
2022/01/11 06:58:38;;;;;;;17.20;10.35;;;;;;;;;;5094503;28;20070;-82
2022/01/11 07:01:04;;;;;;;20.35;11.10;;;;;;;;;;5092351;28;20381;-83
2022/01/11 07:03:30;;;;;;;20.58;10.75;;;;;;;;;;5094087;28;20081;-82
2022/01/11 07:05:57;;;;;;;20.27;11.30;;;;;;;;;;5094207;28;20020;-84
2022/01/11 07:08:24;;;;;;;17.83;10.27;;;;;;;;;;5093499;28;20047;-82
2022/01/11 07:10:51;;;;;;;18.88;10.80;;;;;;;;;;5093965;28;20067;-83
2022/01/11 07:13:17;;;;;;;20.55;12.15;;;;;;;;;;5093906;28;20020;-82
2022/01/11 07:15:43;;;;;;;19.33;11.38;;;;;;;;;;5093513;28;20099;-82
2022/01/11 07:18:10;;;;;;;20.00;10.68;;;;;;;;;;5094055;28;20020;-82
2022/01/11 07:20:38;;;;;;;20.92;12.10;;;;;;;;;;5093899;28;20023;-83
2022/01/11 07:23:04;;;;;;;20.17;11.70;;;;;;;;;;5093592;28;20024;-81
2022/01/11 07:25:32;;;;;;;20.45;11.90;;;;;;;;;;5094226;28;20024;-81
2022/01/11 07:27:59;;;;;;;21.88;12.25;;;;;;;;;;5093702;28;20020;-82
2022/01/11 07:30:25;;;;;;;20.67;12.27;;;;;;;;;;5093448;28;20484;-81
2022/01/11 07:32:52;;;;;;;20.80;11.75;;;;;;;;;;5092449;28;20024;-83
2022/01/11 07:35:18;;;;;;;22.90;12.20;;;;;;;;;;5093633;28;20024;-84
2022/01/11 07:37:45;;;;;;;21.63;12.73;;;;;;;;;;5093387;28;20031;-82
2022/01/11 07:40:11;;;;;;;23.25;12.63;;;;;;;;;;5093757;28;20024;-82
2022/01/11 07:42:38;;;;;;;22.15;12.73;;;;;;;;;;5096575;28;20031;-81
2022/01/11 07:45:04;;;;;;;19.23;9.80;;;;;;;;;;5099628;28;20388;-81
2022/01/11 07:47:30;;;;;;;19.25;10.40;;;;;;;;;;5099664;28;20017;-81
2022/01/11 07:49:57;;;;;;;16.98;10.07;;;;;;;;;;5099697;28;20028;-83
2022/01/11 07:52:23;;;;;;;25.48;13.77;;;;;;;;;;5099641;28;20016;-84
2022/01/11 07:54:49;;;;;;;19.80;11.30;;;;;;;;;;5097920;28;20487;-84
2022/01/11 07:57:16;;;;;;;19.65;11.18;;;;;;;;;;5097303;28;20020;-83
2022/01/11 07:59:42;;;;;;;18.02;10.57;;;;;;;;;;5097506;28;20031;-82
2022/01/11 08:02:08;;;;;;;19.08;10.95;;;;;;;;;;5097316;28;20095;-81
2022/01/11 08:04:35;;;;;;;25.85;13.77;;;;;;;;;;5097335;28;20024;-84
2022/01/11 08:07:01;;;;;;;21.88;11.77;;;;;;;;;;5096480;28;20031;-84
2022/01/11 08:09:28;;;;;;;19.38;11.25;;;;;;;;;;5098157;28;20048;-82
2022/01/11 08:11:56;;;;;;;24.10;12.35;;;;;;;;;;5098646;28;20084;-85
2022/01/11 08:14:23;;;;;;;22.08;11.60;;;;;;;;;;5098282;28;20039;-81
2022/01/11 08:16:49;;;;;;;19.38;11.23;;;;;;;;;;5097629;28;20016;-82
2022/01/11 08:19:16;;;;;;;22.67;12.55;;;;;;;;;;5097138;28;20041;-82
2022/01/11 08:21:42;;;;;;;18.45;9.75;;;;;;;;;;5097513;28;20050;-82
2022/01/11 08:24:08;;;;;;;17.55;9.90;;;;;;;;;;5097319;28;20016;-81
2022/01/11 08:26:34;;;;;;;17.40;9.48;;;;;;;;;;5096889;28;20024;-81
2022/01/11 08:29:01;;;;;;;21.05;11.55;;;;;;;;;;5095628;28;20157;-83
2022/01/11 08:31:27;;;;;;;22.75;11.38;;;;;;;;;;5095655;28;20082;-81
2022/01/11 08:33:53;;;;;;;26.10;11.43;;;;;;;;;;5096617;28;20026;-83
2022/01/11 08:36:19;;;;;;;20.25;11.98;;;;;;;;;;5097478;28;20024;-83
2022/01/11 08:38:46;;;;;;;19.45;11.07;;;;;;;;;;5097426;28;20020;-83
2022/01/11 08:41:12;;;;;;;17.08;10.00;;;;;;;;;;5096706;28;20025;-83
2022/01/11 08:43:38;;;;;;;20.92;11.35;;;;;;;;;;5097019;28;20070;-82
2022/01/11 08:46:05;;;;;;;19.67;10.90;;;;;;;;;;5096340;28;20059;-82
2022/01/11 08:48:32;;;;;;;16.70;10.38;;;;;;;;;;5095768;28;20156;-82
2022/01/11 08:50:58;;;;;;;22.55;11.82;;;;;;;;;;5096703;28;20028;-83
2022/01/11 08:53:25;;;;;;;19.80;11.18;;;;;;;;;;5095929;28;20155;-84
2022/01/11 08:55:52;;;;;;;18.63;11.55;;;;;;;;;;5100618;28;20109;-82
2022/01/11 08:58:20;;;;;;;15.73;9.95;;;;;;;;;;5103329;28;20468;-81
2022/01/11 09:00:47;;;;;;;23.60;12.80;;;;;;;;;;5098204;28;20024;-82
2022/01/11 09:03:13;;;;;;;23.05;12.13;;;;;;;;;;5096808;28;20024;-81
2022/01/11 09:05:39;;;;;;;31.58;16.42;;;;;;;;;;5097299;28;20376;-83
2022/01/11 09:08:06;;;;;;;32.92;17.75;;;;;;;;;;5095311;28;20040;-82
2022/01/11 09:10:32;;;;;;;27.27;15.45;;;;;;;;;;5096965;28;20032;-83
2022/01/11 09:12:58;;;;;;;23.60;13.50;;;;;;;;;;5097044;28;20043;-80
2022/01/11 09:15:24;;;;;;;25.10;13.98;;;;;;;;;;5096535;28;20069;-81
2022/01/11 09:17:51;;;;;;;24.80;14.07;;;;;;;;;;5097104;28;20024;-82
2022/01/11 09:20:17;;;;;;;25.65;14.07;;;;;;;;;;5096961;28;20024;-82
2022/01/11 09:22:44;;;;;;;22.90;13.13;;;;;;;;;;5096124;28;20488;-82
2022/01/11 09:25:11;;;;;;;28.15;14.50;;;;;;;;;;5095915;28;20088;-82
2022/01/11 09:27:37;;;;;;;24.23;12.70;;;;;;;;;;5096120;28;20137;-82
2022/01/11 09:30:08;;;;;;;19.23;10.95;;;;;;;;;;5095734;28;20106;-81
2022/01/11 09:32:34;;;;;;;21.95;11.32;;;;;;;;;;5096452;28;20016;-82
2022/01/11 09:35:01;;;;;;;16.60;10.35;;;;;;;;;;5096524;28;20024;-81
2022/01/11 09:37:27;;;;;;;20.73;10.50;;;;;;;;;;5094508;28;20020;-83
2022/01/11 09:39:53;;;;;;;33.05;13.68;;;;;;;;;;5095885;28;20525;-82
2022/01/11 09:42:20;;;;;;;24.30;14.05;;;;;;;;;;5095680;28;20103;-82
2022/01/11 09:44:47;;;;;;;21.05;10.98;;;;;;;;;;5096061;28;20016;-82
2022/01/11 09:47:14;;;;;;;15.05;8.85;;;;;;;;;;5096383;28;20024;-81
2022/01/11 09:49:40;;;;;;;22.27;11.75;;;;;;;;;;5095781;28;20441;-81
2022/01/11 09:52:08;;;;;;;16.77;11.20;;;;;;;;;;5097131;28;20480;-80
2022/01/11 09:54:36;;;;;;;18.90;10.65;;;;;;;;;;5097299;28;20056;-80
2022/01/11 09:57:03;;;;;;;19.63;10.85;;;;;;;;;;5095680;28;20098;-79
2022/01/11 09:59:30;;;;;;;19.00;10.90;;;;;;;;;;5094964;28;20032;-79
2022/01/11 10:01:56;;;;;;;17.52;9.68;;;;;;;;;;5095009;28;20024;-80
2022/01/11 10:04:26;;;;;;;22.27;11.05;;;;;;;;;;5094437;28;20476;-81
2022/01/11 10:06:54;;;;;;;18.20;10.27;;;;;;;;;;5095031;28;20380;-81
2022/01/11 10:09:21;;;;;;;15.15;9.18;;;;;;;;;;5093993;28;20048;-82
2022/01/11 10:11:49;;;;;;;17.08;9.63;;;;;;;;;;5095071;28;20024;-81
2022/01/11 10:14:35;;;;;;;18.83;10.40;;;;;;;;;;5095013;28;20020;-80
2022/01/11 10:17:04;;;;;;;16.00;8.05;;;;;;;;;;5094846;28;20376;-80
2022/01/11 10:19:30;;;;;;;16.58;8.90;;;;;;;;;;5094264;28;20379;-80
2022/01/11 10:21:56;;;;;;;22.35;12.57;;;;;;;;;;5094542;28;20524;-80
2022/01/11 10:24:26;;;;;;;17.60;10.73;;;;;;;;;;5093365;28;20028;-80
2022/01/11 10:26:53;;;;;;;17.00;9.52;;;;;;;;;;5093994;28;20020;-81
2022/01/11 10:29:24;;;;;;;15.32;9.38;;;;;;;;;;5094590;28;20024;-81
2022/01/11 10:31:50;;;;;;;16.88;9.27;;;;;;;;;;5094030;28;20024;-80
2022/01/11 10:34:25;;;;;;;21.65;11.68;;;;;;;;;;5094366;28;20024;-81
2022/01/11 10:36:51;;;;;;;26.10;12.60;;;;;;;;;;5094229;28;20031;-80
2022/01/11 10:39:25;;;;;;;16.63;9.52;;;;;;;;;;5094082;28;20069;-82
2022/01/11 10:41:52;;;;;;;13.38;8.07;;;;;;;;;;5094470;28;20388;-81
2022/01/11 10:44:37;;;;;;;16.30;9.13;;;;;;;;;;5094262;28;20020;-80
2022/01/11 10:47:03;;;;;;;17.00;8.73;;;;;;;;;;5094026;28;20103;-79
2022/01/11 10:49:31;;;;;;;16.50;8.93;;;;;;;;;;5093896;28;20032;-81
2022/01/11 10:52:17;;;;;;;15.48;9.02;;;;;;;;;;5093017;28;20073;-80
2022/01/11 10:54:43;;;;;;;13.85;8.32;;;;;;;;;;5093618;28;20030;-79
2022/01/11 10:57:23;;;;;;;21.27;11.80;;;;;;;;;;5093906;28;20475;-77
2022/01/11 11:00:08;;;;;;;16.95;10.27;;;;;;;;;;5093394;28;20074;-77
2022/01/11 11:02:34;;;;;;;13.75;7.97;;;;;;;;;;5092544;28;20038;-77
2022/01/11 11:05:21;;;;;;;13.57;7.75;;;;;;;;;;5094153;28;20066;-79
2022/01/11 11:07:56;;;;;;;13.82;7.93;;;;;;;;;;5093502;28;20388;-74
2022/01/11 11:10:35;;;;;;;15.77;8.20;;;;;;;;;;5090115;28;20606;-76
2022/01/11 11:13:01;;;;;;;14.85;8.25;;;;;;;;;;5087991;28;20020;-76
2022/01/11 11:15:29;;;;;;;13.32;8.68;;;;;;;;;;5088347;28;20102;-76
2022/01/11 11:17:55;;;;;;;11.25;7.35;;;;;;;;;;5088951;28;20028;-75
2022/01/11 11:20:21;;;;;;;15.13;9.55;;;;;;;;;;5090111;28;20024;-75
2022/01/11 11:22:47;;;;;;;15.18;9.32;;;;;;;;;;5089153;28;20379;-75
2022/01/11 11:25:14;;;;;;;15.65;9.65;;;;;;;;;;5090042;28;20032;-75
2022/01/11 11:27:40;;;;;;;16.50;9.57;;;;;;;;;;5090449;28;20687;-75
2022/01/11 11:30:06;;;;;;;19.05;9.82;;;;;;;;;;5090002;28;20035;-75
2022/01/11 11:32:33;;;;;;;14.45;8.20;;;;;;;;;;5089804;28;20073;-75
2022/01/11 11:34:59;;;;;;;13.45;8.00;;;;;;;;;;5090104;28;20020;-75
2022/01/11 11:37:33;;;;;;;16.02;9.18;;;;;;;;;;5090059;28;20024;-75
2022/01/11 11:40:00;;;;;;;16.13;10.38;;;;;;;;;;5090107;28;20020;-75
2022/01/11 11:42:28;;;;;;;16.95;9.85;;;;;;;;;;5091292;28;20031;-75
2022/01/11 11:44:57;;;;;;;19.63;10.00;;;;;;;;;;5093652;28;20144;-75
2022/01/11 11:47:34;;;;;;;16.35;9.40;;;;;;;;;;5092094;28;20052;-75
2022/01/11 11:50:02;;;;;;;17.70;10.57;;;;;;;;;;5093158;28;20028;-75
2022/01/11 11:52:42;;;;;;;14.57;9.00;;;;;;;;;;5093434;28;20020;-76
2022/01/11 11:55:08;;;;;;;19.58;11.15;;;;;;;;;;5093547;28;20027;-76
2022/01/11 11:57:36;;;;;;;18.65;9.68;;;;;;;;;;5092864;28;20024;-76
2022/01/11 12:00:06;;;;;;;16.17;9.15;;;;;;;;;;5093250;28;20052;-76
2022/01/11 12:02:32;;;;;;;18.85;10.90;;;;;;;;;;5093204;28;20070;-76
2022/01/11 12:04:58;;;;;;;17.60;9.93;;;;;;;;;;5092870;28;20036;-76
2022/01/11 12:07:31;;;;;;;18.92;10.57;;;;;;;;;;5093016;28;20069;-77
2022/01/11 12:09:58;;;;;;;17.60;10.00;;;;;;;;;;5092829;28;20039;-76
2022/01/11 12:12:40;;;;;;;16.15;9.68;;;;;;;;;;5093094;28;20484;-77
2022/01/11 12:15:22;;;;;;;19.03;10.27;;;;;;;;;;5091796;28;20034;-76
2022/01/11 12:18:08;;;;;;;19.85;10.95;;;;;;;;;;5092832;28;20269;-77
2022/01/11 12:20:42;;;;;;;15.65;10.05;;;;;;;;;;5079304;28;20036;-76
2022/01/11 12:23:09;;;;;;;21.20;13.00;;;;;;;;;;5092948;28;20038;-76
2022/01/11 12:25:42;;;;;;;16.88;11.30;;;;;;;;;;5092748;28;20024;-76
2022/01/11 12:28:14;;;;;;;20.48;12.38;;;;;;;;;;5092964;28;20016;-76
2022/01/11 12:30:41;;;;;;;22.63;12.23;;;;;;;;;;5096742;28;20107;-79
2022/01/11 12:33:08;;;;;;;22.63;13.07;;;;;;;;;;5096297;28;20107;-76
2022/01/11 12:35:49;;;;;;;17.55;10.73;;;;;;;;;;5096528;28;20031;-75
2022/01/11 12:38:15;;;;;;;19.75;12.07;;;;;;;;;;5096691;28;20471;-76
2022/01/11 12:40:43;;;;;;;20.55;11.50;;;;;;;;;;5096476;28;20028;-75
2022/01/11 12:43:16;;;;;;;22.77;12.55;;;;;;;;;;5096698;28;20020;-76
2022/01/11 12:46:02;;;;;;;18.30;11.27;;;;;;;;;;5096369;28;20444;-76
2022/01/11 12:48:50;;;;;;;18.73;12.25;;;;;;;;;;5096270;28;20019;-77
2022/01/11 12:51:30;;;;;;;19.17;10.93;;;;;;;;;;5096414;28;20028;-77
2022/01/11 12:54:09;;;;;;;18.40;10.20;;;;;;;;;;5095849;28;20044;-75
2022/01/11 12:56:36;;;;;;;20.30;11.95;;;;;;;;;;5096002;28;20495;-74
2022/01/11 12:59:02;;;;;;;18.10;11.27;;;;;;;;;;5096115;28;20021;-76
2022/01/11 13:01:29;;;;;;;17.02;10.30;;;;;;;;;;5095571;28;20031;-76
2022/01/11 13:03:57;;;;;;;18.65;10.15;;;;;;;;;;5096008;28;20020;-76
2022/01/11 13:06:24;;;;;;;19.30;12.43;;;;;;;;;;5095623;28;20379;-76
2022/01/11 13:08:54;;;;;;;21.95;13.63;;;;;;;;;;5095801;28;20385;-79
2022/01/11 13:11:20;;;;;;;16.95;11.25;;;;;;;;;;5095899;28;20034;-77
2022/01/11 13:14:05;;;;;;;19.85;12.85;;;;;;;;;;5095486;28;20016;-77
2022/01/11 13:16:32;;;;;;;20.40;12.75;;;;;;;;;;5095901;28;20082;-76
2022/01/11 13:19:11;;;;;;;21.50;12.27;;;;;;;;;;5095921;28;20527;-75
2022/01/11 13:21:37;;;;;;;21.33;11.65;;;;;;;;;;5095541;28;20016;-76
2022/01/11 13:26:47;;;;;;;19.63;12.65;;;;;;;;;;5095610;28;20103;-76
2022/01/11 13:29:16;;;;;;;18.75;11.48;;;;;;;;;;5095132;28;20027;-76
2022/01/11 13:31:42;;;;;;;18.85;11.02;;;;;;;;;;5095480;28;20042;-76
2022/01/11 13:34:14;;;;;;;16.98;11.00;;;;;;;;;;5095404;28;20027;-76
2022/01/11 13:36:43;;;;;;;18.60;10.82;;;;;;;;;;5094997;28;20051;-76
2022/01/11 13:39:14;;;;;;;17.15;10.48;;;;;;;;;;5095724;28;20050;-78
2022/01/11 13:41:48;;;;;;;18.95;10.52;;;;;;;;;;5094931;28;20160;-76
2022/01/11 13:44:28;;;;;;;17.73;10.77;;;;;;;;;;5095311;28;20107;-77
2022/01/11 13:46:56;;;;;;;16.88;9.82;;;;;;;;;;5095263;28;20052;-76
2022/01/11 13:49:24;;;;;;;20.98;12.10;;;;;;;;;;5094777;28;20075;-77
2022/01/11 13:51:52;;;;;;;18.20;10.55;;;;;;;;;;5095373;28;20024;-76
2022/01/11 13:54:19;;;;;;;15.55;10.02;;;;;;;;;;5094954;28;20058;-76
2022/01/11 13:56:48;;;;;;;16.48;10.10;;;;;;;;;;5093263;28;20024;-75
2022/01/11 13:59:16;;;;;;;18.88;11.70;;;;;;;;;;5094897;28;20028;-75
2022/01/11 14:01:42;;;;;;;19.20;11.10;;;;;;;;;;5095012;28;20028;-76
2022/01/11 14:04:10;;;;;;;21.63;11.93;;;;;;;;;;5094493;28;20066;-76
2022/01/11 14:06:41;;;;;;;17.23;9.77;;;;;;;;;;5094765;28;20024;-76
2022/01/11 14:09:11;;;;;;;24.73;11.90;;;;;;;;;;5094637;28;20039;-76
2022/01/11 14:11:40;;;;;;;23.30;13.63;;;;;;;;;;5094460;28;20028;-75
2022/01/11 14:14:07;;;;;;;20.27;11.02;;;;;;;;;;5094629;28;20024;-75
2022/01/11 14:16:34;;;;;;;20.30;11.48;;;;;;;;;;5094400;28;20028;-75
2022/01/11 14:19:09;;;;;;;18.20;10.30;;;;;;;;;;5094670;28;20500;-75
2022/01/11 14:21:52;;;;;;;19.52;11.35;;;;;;;;;;5094772;28;20020;-75
2022/01/11 14:24:19;;;;;;;17.88;11.05;;;;;;;;;;5094274;28;20046;-75
2022/01/11 14:26:45;;;;;;;18.95;11.05;;;;;;;;;;5094731;28;20078;-74
2022/01/11 14:29:20;;;;;;;21.48;11.25;;;;;;;;;;5094353;28;20027;-77
2022/01/11 14:32:03;;;;;;;24.02;13.60;;;;;;;;;;5093946;28;20036;-75
2022/01/11 14:34:29;;;;;;;29.10;16.20;;;;;;;;;;5094429;28;20031;-76